Time;durP1;ratioP1;P1;durP2;ratioP2;P2;SDS_P1;SDS_P2;PMS_P1;PMS_P2;Temp;Humidity;BMP_temperature;BMP_pressure;BME280_temperature;BME280_humidity;BME280_pressure;Samples;Min_cycle;Max_cycle;Signal;HPM_P1;HPM_P2
2024/01/27 00:01:37;;;;;;;3.07;1.43;;;1.10;99.90;;;;;;5031830;28;20526;-72
2024/01/27 00:04:02;;;;;;;3.57;1.57;;;1.00;99.90;;;;;;5031460;28;20174;-72
2024/01/27 00:06:28;;;;;;;2.50;1.50;;;1.00;99.90;;;;;;5032021;28;20634;-72
2024/01/27 00:08:54;;;;;;;3.30;1.60;;;1.00;99.90;;;;;;5031712;28;20178;-73
2024/01/27 00:11:19;;;;;;;4.63;1.70;;;1.00;99.90;;;;;;5032013;28;20198;-71
2024/01/27 00:13:45;;;;;;;6.87;2.10;;;1.00;99.90;;;;;;5031922;28;20804;-71
2024/01/27 00:16:11;;;;;;;3.73;1.97;;;0.90;99.90;;;;;;5031984;28;20185;-72
2024/01/27 00:18:37;;;;;;;4.83;2.33;;;;;;;;;;5031148;28;20413;-72
2024/01/27 00:21:04;;;;;;;5.47;2.07;;;0.80;99.90;;;;;;5031697;28;20206;-72
2024/01/27 00:23:30;;;;;;;8.37;2.90;;;0.70;99.90;;;;;;5031854;28;20449;-72
2024/01/27 00:25:55;;;;;;;4.37;1.83;;;1.60;99.90;;;;;;5031320;28;20819;-72
2024/01/27 00:28:21;;;;;;;9.63;1.60;;;0.80;99.90;;;;;;5031602;28;20191;-72
2024/01/27 00:30:46;;;;;;;6.00;2.10;;;0.80;99.90;;;;;;5031357;28;20585;-72
2024/01/27 00:33:12;;;;;;;4.33;1.73;;;0.70;99.90;;;;;;5030991;28;20190;-71
2024/01/27 00:35:37;;;;;;;3.83;1.40;;;0.70;99.90;;;;;;5031755;28;20232;-72
2024/01/27 00:38:03;;;;;;;2.97;1.60;;;0.70;99.90;;;;;;5031432;28;20566;-71
2024/01/27 00:40:29;;;;;;;4.13;1.77;;;0.70;99.90;;;;;;5031507;28;20216;-70
2024/01/27 00:42:54;;;;;;;5.17;2.70;;;0.70;99.90;;;;;;5031535;28;20206;-72
2024/01/27 00:45:22;;;;;;;4.03;1.70;;;0.70;99.90;;;;;;5036607;28;20688;-72
2024/01/27 00:47:49;;;;;;;6.70;1.90;;;0.70;99.90;;;;;;5030415;28;20249;-72
2024/01/27 00:50:15;;;;;;;2.90;1.30;;;0.70;99.90;;;;;;5031440;28;20428;-71
2024/01/27 00:52:40;;;;;;;3.43;1.10;;;0.60;99.90;;;;;;5031436;28;20790;-71
2024/01/27 00:55:06;;;;;;;3.87;1.27;;;0.60;99.90;;;;;;5031740;28;20194;-72
2024/01/27 00:57:31;;;;;;;5.20;1.97;;;0.50;99.90;;;;;;5030359;28;20255;-71
2024/01/27 00:59:57;;;;;;;5.63;2.13;;;0.40;99.90;;;;;;5030992;28;20206;-71
2024/01/27 01:02:23;;;;;;;2.30;1.03;;;0.40;99.90;;;;;;5030603;28;20250;-72
2024/01/27 01:04:49;;;;;;;6.47;2.33;;;0.50;99.90;;;;;;5032584;28;20540;-71
2024/01/27 01:07:14;;;;;;;2.50;1.37;;;0.50;99.90;;;;;;5035108;28;20432;-71
2024/01/27 01:09:40;;;;;;;2.90;1.63;;;0.50;99.90;;;;;;5034994;28;20178;-71
2024/01/27 01:12:06;;;;;;;1.87;1.07;;;0.50;99.90;;;;;;5034861;28;20175;-71
2024/01/27 01:14:31;;;;;;;2.33;0.80;;;0.50;99.90;;;;;;5035249;28;20174;-71
2024/01/27 01:16:57;;;;;;;2.43;1.30;;;0.40;99.90;;;;;;5034512;28;20210;-71
2024/01/27 01:19:22;;;;;;;3.70;1.60;;;0.40;99.90;;;;;;5034893;28;20182;-71
2024/01/27 01:21:47;;;;;;;6.60;2.40;;;0.40;99.90;;;;;;5034801;28;20201;-71
2024/01/27 01:24:13;;;;;;;12.73;3.97;;;0.30;99.90;;;;;;5035130;28;20533;-71
2024/01/27 01:26:39;;;;;;;5.50;2.60;;;0.40;99.90;;;;;;5033878;28;20182;-72
2024/01/27 01:29:04;;;;;;;11.73;2.13;;;0.40;99.90;;;;;;5034477;28;20675;-72
2024/01/27 01:31:30;;;;;;;7.00;1.60;;;1.20;99.90;;;;;;5034536;28;20179;-71
2024/01/27 01:33:55;;;;;;;8.30;1.87;;;0.40;99.90;;;;;;5033939;28;20182;-71
2024/01/27 01:36:21;;;;;;;8.10;1.50;;;0.30;99.90;;;;;;5034657;28;20186;-72
2024/01/27 01:38:46;;;;;;;4.33;1.40;;;0.30;99.90;;;;;;5045283;28;20236;-72
2024/01/27 01:41:12;;;;;;;5.43;1.47;;;0.30;99.90;;;;;;5036493;28;20218;-71
2024/01/27 01:43:37;;;;;;;5.53;1.97;;;0.30;99.90;;;;;;5037520;28;20284;-72
2024/01/27 01:46:03;;;;;;;18.43;2.10;;;0.30;99.90;;;;;;5036670;28;20183;-72
2024/01/27 01:48:29;;;;;;;12.20;2.13;;;0.20;99.90;;;;;;5033883;28;20186;-72
2024/01/27 01:50:55;;;;;;;6.23;2.40;;;0.30;99.90;;;;;;5034405;28;20232;-72
2024/01/27 01:53:22;;;;;;;9.63;2.80;;;0.30;99.90;;;;;;5034468;28;20817;-72
2024/01/27 01:55:49;;;;;;;9.27;2.20;;;1.80;99.90;;;;;;5033287;28;20272;-71
2024/01/27 01:58:16;;;;;;;4.73;2.20;;;0.20;99.90;;;;;;5034269;28;20425;-71
2024/01/27 02:00:42;;;;;;;6.60;2.40;;;0.10;99.90;;;;;;5034169;28;20468;-72
2024/01/27 02:03:13;;;;;;;6.30;2.03;;;0.20;99.90;;;;;;5033504;28;20471;-71
2024/01/27 02:05:39;;;;;;;9.80;2.60;;;0.20;99.90;;;;;;5034281;28;20182;-71
2024/01/27 02:08:05;;;;;;;8.73;2.33;;;0.10;99.90;;;;;;5033993;28;20470;-71
2024/01/27 02:10:36;;;;;;;9.90;2.30;;;0.10;99.90;;;;;;5034202;28;20417;-72
2024/01/27 02:13:03;;;;;;;5.80;2.10;;;0.10;99.90;;;;;;5034162;28;20895;-72
2024/01/27 02:15:29;;;;;;;3.80;1.80;;;0.00;99.90;;;;;;5033779;28;20425;-72
2024/01/27 02:17:54;;;;;;;6.40;2.60;;;0.00;99.90;;;;;;5033478;28;20448;-71
2024/01/27 02:20:19;;;;;;;6.60;1.97;;;-0.10;99.90;;;;;;5034027;28;20205;-72
2024/01/27 02:22:45;;;;;;;8.40;2.10;;;-0.10;99.90;;;;;;5033849;28;20517;-72
2024/01/27 02:25:11;;;;;;;13.33;1.80;;;0.00;99.90;;;;;;5044574;28;20185;-71
2024/01/27 02:27:36;;;;;;;12.63;2.27;;;-0.10;99.90;;;;;;5033933;28;20645;-72
2024/01/27 02:30:02;;;;;;;5.50;2.77;;;-0.10;99.90;;;;;;5033437;28;20744;-72
2024/01/27 02:32:27;;;;;;;7.77;2.53;;;0.00;99.90;;;;;;5033053;28;20189;-71
2024/01/27 02:34:53;;;;;;;2.60;2.00;;;0.00;99.90;;;;;;5033327;28;20604;-72
2024/01/27 02:37:19;;;;;;;2.83;1.50;;;0.00;99.90;;;;;;5033792;28;20681;-72
2024/01/27 02:39:44;;;;;;;5.43;2.10;;;-0.10;99.90;;;;;;5033451;28;20225;-72
2024/01/27 02:42:10;;;;;;;3.50;1.67;;;-0.20;99.90;;;;;;5035279;28;20440;-72
2024/01/27 02:44:35;;;;;;;4.40;1.53;;;-0.20;99.90;;;;;;5035220;28;20179;-72
2024/01/27 02:47:01;;;;;;;5.00;1.53;;;-0.20;99.90;;;;;;5033218;28;20260;-72
2024/01/27 02:49:26;;;;;;;3.80;1.63;;;-0.20;99.90;;;;;;5033331;28;20253;-72
2024/01/27 02:51:52;;;;;;;7.20;2.40;;;-0.10;99.90;;;;;;5034174;28;20261;-72
2024/01/27 02:54:17;;;;;;;4.37;1.63;;;-0.20;99.90;;;;;;5033688;28;20714;-72
2024/01/27 02:56:43;;;;;;;6.73;1.83;;;-0.20;99.90;;;;;;5032848;28;20193;-72
2024/01/27 02:59:08;;;;;;;7.10;2.63;;;-0.20;99.90;;;;;;5033208;28;20627;-72
2024/01/27 03:01:34;;;;;;;2.90;1.40;;;-0.30;99.90;;;;;;5033280;28;20194;-72
2024/01/27 03:03:59;;;;;;;6.73;2.00;;;-0.30;99.90;;;;;;5032434;28;20182;-72
2024/01/27 03:06:25;;;;;;;11.90;2.43;;;-0.30;99.90;;;;;;5033126;28;20220;-72
2024/01/27 03:08:50;;;;;;;2.93;1.53;;;-0.30;99.90;;;;;;5032826;28;20611;-72
2024/01/27 03:11:16;;;;;;;1.97;1.20;;;-0.30;99.90;;;;;;5033058;28;20182;-72
2024/01/27 03:13:44;;;;;;;2.90;1.60;;;-0.30;99.90;;;;;;5032880;28;20300;-72
2024/01/27 03:16:10;;;;;;;6.70;1.90;;;-0.40;99.90;;;;;;5033083;28;20194;-72
2024/01/27 03:18:36;;;;;;;10.03;1.97;;;-0.40;99.90;;;;;;5031664;28;20499;-72
2024/01/27 03:21:02;;;;;;;3.27;2.10;;;-0.40;99.90;;;;;;5032664;28;20293;-72
2024/01/27 03:23:28;;;;;;;5.80;2.00;;;-0.50;99.90;;;;;;5032342;28;20945;-71
2024/01/27 03:25:54;;;;;;;4.33;1.73;;;-0.50;99.90;;;;;;5031726;28;20425;-72
2024/01/27 03:28:19;;;;;;;3.20;1.60;;;-0.50;99.90;;;;;;5031858;28;20175;-72
2024/01/27 03:30:45;;;;;;;4.20;1.77;;;-0.50;99.90;;;;;;5032590;28;20576;-72
2024/01/27 03:33:12;;;;;;;4.00;1.30;;;-0.50;99.90;;;;;;5031593;28;20557;-72
2024/01/27 03:35:39;;;;;;;3.50;1.50;;;-0.50;99.90;;;;;;5032500;28;20233;-72
2024/01/27 03:38:05;;;;;;;2.80;1.37;;;-0.60;99.90;;;;;;5032432;28;20419;-72
2024/01/27 03:40:31;;;;;;;4.93;1.63;;;0.10;99.90;;;;;;5032307;28;20511;-72
2024/01/27 03:42:56;;;;;;;2.33;1.17;;;-0.60;99.90;;;;;;5032187;28;20413;-73
2024/01/27 03:45:22;;;;;;;5.87;1.93;;;-0.70;99.90;;;;;;5038254;28;20742;-72
2024/01/27 03:47:47;;;;;;;6.53;2.43;;;-0.80;99.90;;;;;;5031437;28;20261;-72
2024/01/27 03:50:13;;;;;;;2.80;1.30;;;-0.90;99.90;;;;;;5032410;28;20599;-72
2024/01/27 03:52:38;;;;;;;4.17;1.67;;;-0.80;99.90;;;;;;5032238;28;20229;-72
2024/01/27 03:55:05;;;;;;;7.53;1.90;;;-0.80;99.90;;;;;;5031577;28;20941;-72
2024/01/27 03:57:31;;;;;;;5.53;2.10;;;-1.00;99.90;;;;;;5032023;28;20183;-72
2024/01/27 03:59:56;;;;;;;3.43;1.40;;;-1.10;99.90;;;;;;5032050;28;20420;-72
2024/01/27 04:02:22;;;;;;;2.23;0.80;;;-1.10;99.90;;;;;;5031836;28;20188;-72
2024/01/27 04:04:47;;;;;;;3.70;1.33;;;-0.90;99.90;;;;;;5031767;28;20769;-72
2024/01/27 04:07:13;;;;;;;6.17;1.67;;;-0.90;99.90;;;;;;5032125;28;20212;-72
2024/01/27 04:09:38;;;;;;;9.53;1.30;;;-0.90;99.90;;;;;;5032035;28;20207;-72
2024/01/27 04:12:04;;;;;;;5.43;1.67;;;-0.90;99.90;;;;;;5032135;28;20175;-72
2024/01/27 04:14:30;;;;;;;2.40;1.30;;;-0.90;99.90;;;;;;5031936;28;20175;-72
2024/01/27 04:16:55;;;;;;;2.90;1.47;;;-0.90;99.90;;;;;;5031195;28;20441;-72
2024/01/27 04:19:21;;;;;;;2.83;1.30;;;-0.90;99.90;;;;;;5031167;28;20232;-72
2024/01/27 04:21:46;;;;;;;3.67;1.77;;;-0.50;99.90;;;;;;5031914;28;20309;-72
2024/01/27 04:24:12;;;;;;;4.50;1.30;;;-0.80;99.90;;;;;;5031840;28;20182;-72
2024/01/27 04:26:37;;;;;;;2.13;1.30;;;-0.80;99.90;;;;;;5031834;28;20190;-72
2024/01/27 04:29:03;;;;;;;10.40;1.83;;;-0.80;99.90;;;;;;5031636;28;20272;-72
2024/01/27 04:31:31;;;;;;;7.23;1.37;;;-0.80;99.90;;;;;;5031805;28;20296;-72
2024/01/27 04:33:56;;;;;;;2.87;1.00;;;-0.80;99.90;;;;;;5031011;28;20235;-73
2024/01/27 04:36:26;;;;;;;2.90;1.23;;;-0.80;99.90;;;;;;5031515;28;20520;-72
2024/01/27 04:38:52;;;;;;;6.60;1.80;;;-0.90;99.90;;;;;;5031614;28;20185;-73
2024/01/27 04:41:17;;;;;;;3.77;1.90;;;-0.90;99.90;;;;;;5031475;28;20465;-73
2024/01/27 04:43:43;;;;;;;8.00;1.83;;;-1.00;99.90;;;;;;5035815;28;20653;-74
2024/01/27 04:46:09;;;;;;;3.93;1.53;;;-1.00;99.90;;;;;;5032501;28;20182;-72
2024/01/27 04:48:34;;;;;;;1.80;1.10;;;-1.00;99.90;;;;;;5030964;28;20166;-72
2024/01/27 04:51:00;;;;;;;5.73;1.20;;;-1.00;99.90;;;;;;5031325;28;20919;-72
2024/01/27 04:53:25;;;;;;;1.80;1.13;;;-1.20;99.90;;;;;;5031719;28;20186;-72
2024/01/27 04:55:51;;;;;;;3.80;1.80;;;-1.30;99.90;;;;;;5031594;28;20186;-73
2024/01/27 04:58:16;;;;;;;1.73;1.13;;;-1.40;99.90;;;;;;5031630;28;20182;-72
2024/01/27 05:00:42;;;;;;;2.57;1.10;;;-1.40;99.90;;;;;;5031444;28;20595;-73
2024/01/27 05:03:13;;;;;;;2.90;1.10;;;-1.30;99.90;;;;;;5030671;28;20174;-72
2024/01/27 05:05:41;;;;;;;4.90;2.00;;;-1.30;99.90;;;;;;5031467;28;20175;-72
2024/01/27 05:08:06;;;;;;;50.53;18.90;;;-1.20;99.90;;;;;;5031302;28;20425;-72
2024/01/27 05:10:32;;;;;;;30.70;13.10;;;-1.20;99.90;;;;;;5031189;28;20462;-72
2024/01/27 05:12:57;;;;;;;12.67;3.80;;;-1.20;99.90;;;;;;5030704;28;20191;-73
2024/01/27 05:15:23;;;;;;;6.00;2.83;;;-1.30;99.90;;;;;;5030129;28;20210;-73
2024/01/27 05:17:48;;;;;;;5.47;2.40;;;-1.30;99.90;;;;;;5030201;28;20216;-73
2024/01/27 05:20:14;;;;;;;8.10;2.97;;;-1.30;99.90;;;;;;5030574;28;20670;-72
2024/01/27 05:22:40;;;;;;;6.43;1.60;;;-1.40;99.90;;;;;;5031087;28;20206;-73
2024/01/27 05:25:06;;;;;;;5.90;1.90;;;-1.40;99.90;;;;;;5030158;28;20431;-72
2024/01/27 05:27:32;;;;;;;6.40;1.90;;;-1.40;99.90;;;;;;5030838;28;20204;-74
2024/01/27 05:29:57;;;;;;;4.37;1.70;;;-1.50;99.90;;;;;;5030250;28;20264;-72
2024/01/27 05:32:22;;;;;;;2.33;1.50;;;-1.50;99.90;;;;;;5030097;28;20227;-72
2024/01/27 05:34:48;;;;;;;8.30;2.00;;;-1.50;99.90;;;;;;5029959;28;20213;-73
2024/01/27 05:37:14;;;;;;;6.77;2.17;;;-1.40;99.90;;;;;;5030351;28;20186;-73
2024/01/27 05:39:39;;;;;;;3.00;1.70;;;-1.40;99.90;;;;;;5030436;28;20190;-72
2024/01/27 05:42:05;;;;;;;5.53;1.57;;;-1.40;99.90;;;;;;5030353;28;20218;-73
2024/01/27 05:44:30;;;;;;;3.67;1.97;;;-1.40;99.90;;;;;;5036020;28;20297;-73
2024/01/27 05:46:56;;;;;;;2.97;1.40;;;-1.30;99.90;;;;;;5030345;28;20190;-73
2024/01/27 05:49:21;;;;;;;17.63;2.53;;;-1.30;99.90;;;;;;5029698;28;20702;-73
2024/01/27 05:51:48;;;;;;;3.97;1.80;;;-1.40;99.90;;;;;;5033427;28;20190;-73
2024/01/27 05:54:16;;;;;;;14.27;1.97;;;-1.40;99.90;;;;;;5033788;28;20216;-73
2024/01/27 05:56:42;;;;;;;7.30;2.50;;;-1.50;99.90;;;;;;5033305;28;20763;-73
2024/01/27 05:59:07;;;;;;;4.53;2.17;;;-1.50;99.90;;;;;;5033712;28;20428;-73
2024/01/27 06:01:33;;;;;;;5.70;1.77;;;-1.50;99.90;;;;;;5033675;28;20260;-73
2024/01/27 06:03:58;;;;;;;3.97;1.70;;;-1.50;99.90;;;;;;5033071;28;20182;-73
2024/01/27 06:06:24;;;;;;;4.50;2.03;;;-1.50;99.90;;;;;;5034033;28;20189;-73
2024/01/27 06:08:49;;;;;;;8.73;1.30;;;-1.50;99.90;;;;;;5033649;28;20183;-73
2024/01/27 06:11:25;;;;;;;2.70;1.37;;;-1.50;99.90;;;;;;5034440;28;20190;-72
2024/01/27 06:13:51;;;;;;;7.10;2.60;;;-1.50;99.90;;;;;;5034413;28;20639;-73
2024/01/27 06:16:20;;;;;;;4.60;2.03;;;-1.50;99.90;;;;;;5034209;28;20433;-72
2024/01/27 06:18:45;;;;;;;4.17;2.10;;;-1.50;99.90;;;;;;5020182;28;20189;-73
2024/01/27 06:21:11;;;;;;;4.20;1.73;;;-1.50;99.90;;;;;;5034027;28;20456;-73
2024/01/27 06:23:36;;;;;;;3.43;1.70;;;-1.50;99.90;;;;;;5033514;28;20206;-73
2024/01/27 06:26:07;;;;;;;3.33;1.60;;;-1.70;99.90;;;;;;5033694;28;20190;-73
2024/01/27 06:28:32;;;;;;;4.23;1.60;;;-1.70;99.90;;;;;;5032832;28;20252;-73
2024/01/27 06:30:58;;;;;;;2.37;1.23;;;-1.60;99.90;;;;;;5033507;28;20957;-73
2024/01/27 06:33:23;;;;;;;7.83;2.07;;;-1.60;99.90;;;;;;5032720;28;20229;-73
2024/01/27 06:35:49;;;;;;;2.80;1.80;;;-1.70;99.90;;;;;;5033522;28;20226;-73
2024/01/27 06:38:15;;;;;;;7.47;2.60;;;-1.80;99.90;;;;;;5033148;28;20186;-74
2024/01/27 06:40:40;;;;;;;3.07;1.53;;;-1.80;99.90;;;;;;5033284;28;20730;-73
2024/01/27 06:43:06;;;;;;;6.63;2.33;;;-1.80;99.90;;;;;;5035702;28;20512;-74
2024/01/27 06:45:31;;;;;;;4.70;2.00;;;-1.80;99.90;;;;;;5038845;28;20178;-74
2024/01/27 06:47:57;;;;;;;3.97;2.20;;;-1.80;99.90;;;;;;5032004;28;20190;-73
2024/01/27 06:50:23;;;;;;;4.83;2.17;;;-1.70;99.90;;;;;;5033732;28;20269;-73
2024/01/27 06:52:48;;;;;;;6.13;2.03;;;-1.70;99.90;;;;;;5033319;28;20190;-73
2024/01/27 06:55:14;;;;;;;9.33;3.43;;;-1.60;99.90;;;;;;5033763;28;20859;-73
2024/01/27 06:57:40;;;;;;;4.80;2.87;;;-1.60;99.90;;;;;;5033666;28;20202;-74
2024/01/27 07:00:07;;;;;;;5.93;2.20;;;-1.70;99.90;;;;;;5034270;28;20561;-74
2024/01/27 07:02:32;;;;;;;6.57;2.90;;;-1.70;99.90;;;;;;5033894;28;20524;-74
2024/01/27 07:04:58;;;;;;;9.00;3.30;;;-1.60;99.90;;;;;;5034875;28;20453;-74
2024/01/27 07:07:28;;;;;;;5.63;3.07;;;-1.70;99.90;;;;;;5034007;28;20178;-74
2024/01/27 07:09:55;;;;;;;6.80;2.70;;;-1.70;99.90;;;;;;5033718;28;20191;-74
2024/01/27 07:12:21;;;;;;;5.20;3.20;;;-1.70;99.90;;;;;;5020646;28;20845;-74
2024/01/27 07:14:46;;;;;;;8.47;3.70;;;-1.80;99.90;;;;;;5034003;28;20416;-74
2024/01/27 07:17:12;;;;;;;12.33;3.80;;;-1.70;99.90;;;;;;5033793;28;20183;-74
2024/01/27 07:19:37;;;;;;;11.27;4.87;;;-1.70;99.90;;;;;;5032892;28;20178;-74
2024/01/27 07:22:06;;;;;;;16.97;6.17;;;-1.70;99.90;;;;;;5033698;28;20218;-74
2024/01/27 07:24:31;;;;;;;14.50;5.40;;;-1.60;99.90;;;;;;5033523;28;20229;-74
2024/01/27 07:26:59;;;;;;;16.67;6.90;;;-1.60;99.90;;;;;;5033610;28;20893;-74
2024/01/27 07:29:25;;;;;;;14.47;6.50;;;-1.60;99.90;;;;;;5033156;28;20230;-74
2024/01/27 07:31:50;;;;;;;12.50;6.10;;;-1.70;99.90;;;;;;5033437;28;20429;-74
2024/01/27 07:34:16;;;;;;;14.03;6.50;;;-1.70;99.90;;;;;;5032788;28;20534;-74
2024/01/27 07:36:41;;;;;;;10.23;5.57;;;-1.70;99.90;;;;;;5033560;28;20186;-74
2024/01/27 07:39:07;;;;;;;13.70;5.67;;;-1.70;99.90;;;;;;5033294;28;20499;-74
2024/01/27 07:41:33;;;;;;;18.47;6.87;;;-1.60;99.90;;;;;;5033269;28;20245;-74
2024/01/27 07:44:10;;;;;;;20.60;9.17;;;-1.60;99.90;;;;;;5037876;28;20185;-74
2024/01/27 07:46:37;;;;;;;18.57;5.27;;;-1.60;99.90;;;;;;5021118;28;20240;-74
2024/01/27 07:49:03;;;;;;;7.50;2.97;;;-1.50;99.90;;;;;;5032879;28;20421;-74
2024/01/27 07:51:29;;;;;;;8.67;4.03;;;-1.40;99.90;;;;;;5033464;28;20453;-74
2024/01/27 07:53:54;;;;;;;10.50;4.17;;;-1.50;99.90;;;;;;5015299;28;20433;-74
2024/01/27 07:56:20;;;;;;;17.50;4.13;;;-1.50;99.90;;;;;;5033491;28;20191;-74
2024/01/27 07:58:45;;;;;;;10.10;4.10;;;-1.60;99.90;;;;;;5033449;28;20458;-74
2024/01/27 08:01:15;;;;;;;11.30;4.80;;;-1.50;99.90;;;;;;5033451;28;20210;-74
2024/01/27 08:03:41;;;;;;;14.47;5.47;;;-1.40;99.90;;;;;;5032074;28;20202;-74
2024/01/27 08:06:09;;;;;;;11.70;4.93;;;-1.40;99.90;;;;;;5032190;28;20468;-74
2024/01/27 08:08:35;;;;;;;11.77;5.17;;;-1.30;99.90;;;;;;5032335;28;20197;-74
2024/01/27 08:11:01;;;;;;;9.30;4.37;;;-1.20;99.90;;;;;;5024051;28;20791;-73
2024/01/27 08:13:26;;;;;;;5.63;3.40;;;-1.10;99.90;;;;;;5031915;28;20232;-74
2024/01/27 08:15:52;;;;;;;11.30;3.00;;;-0.90;99.90;;;;;;5032230;28;20186;-74
2024/01/27 08:18:17;;;;;;;10.90;3.60;;;-0.80;99.90;;;;;;5031465;28;20183;-74
2024/01/27 08:20:43;;;;;;;7.27;3.50;;;-0.70;99.90;;;;;;5032216;28;20202;-74
2024/01/27 08:23:09;;;;;;;15.87;4.93;;;-0.50;99.90;;;;;;5032237;28;20182;-74
2024/01/27 08:25:34;;;;;;;14.33;5.30;;;-0.40;99.90;;;;;;5020900;28;20178;-74
2024/01/27 08:28:00;;;;;;;7.90;3.73;;;-0.30;99.90;;;;;;5031915;28;20417;-74
2024/01/27 08:30:25;;;;;;;6.50;2.73;;;-0.10;99.90;;;;;;5031448;28;20222;-74
2024/01/27 08:32:51;;;;;;;3.27;1.80;;;0.10;99.90;;;;;;5030893;28;20283;-74
2024/01/27 08:35:16;;;;;;;5.07;2.73;;;0.30;99.90;;;;;;5032007;28;20186;-74
2024/01/27 08:37:42;;;;;;;10.83;2.93;;;0.60;99.90;;;;;;5031941;28;20185;-74
2024/01/27 08:40:08;;;;;;;3.43;2.00;;;0.70;99.90;;;;;;5031771;28;20576;-74
2024/01/27 08:42:34;;;;;;;18.03;3.43;;;0.90;99.90;;;;;;5034740;28;20820;-74
2024/01/27 08:45:00;;;;;;;6.90;2.80;;;1.40;99.90;;;;;;5037801;28;20421;-75
2024/01/27 08:47:25;;;;;;;10.77;4.23;;;1.50;99.90;;;;;;5031614;28;21241;-75
2024/01/27 08:49:51;;;;;;;12.03;3.70;;;1.90;99.90;;;;;;5031399;28;20265;-74
2024/01/27 08:52:16;;;;;;;11.23;3.90;;;2.40;99.90;;;;;;5030767;28;20178;-75
2024/01/27 08:54:42;;;;;;;14.40;3.60;;;2.30;99.90;;;;;;5031558;28;20528;-75
2024/01/27 08:57:07;;;;;;;9.70;3.73;;;2.70;99.90;;;;;;5031355;28;20185;-75
2024/01/27 08:59:33;;;;;;;15.20;5.20;;;2.70;99.90;;;;;;5031379;28;20186;-75
2024/01/27 09:01:58;;;;;;;4.90;2.30;;;2.60;99.90;;;;;;5031703;28;20285;-75
2024/01/27 09:04:24;;;;;;;4.53;2.43;;;2.50;99.90;;;;;;5031085;28;20179;-75
2024/01/27 09:06:49;;;;;;;5.37;2.00;;;2.60;99.90;;;;;;5031767;28;20480;-75
2024/01/27 09:09:15;;;;;;;2.63;1.97;;;2.60;99.90;;;;;;5031630;28;20189;-75
2024/01/27 09:11:40;;;;;;;2.33;1.47;;;2.70;99.90;;;;;;5031310;28;20182;-75
2024/01/27 09:14:07;;;;;;;3.60;2.00;;;3.30;99.90;;;;;;5031690;28;20209;-75
2024/01/27 09:16:33;;;;;;;7.10;3.07;;;2.90;99.90;;;;;;5032280;28;20611;-76
2024/01/27 09:18:58;;;;;;;8.73;2.90;;;2.90;99.90;;;;;;5031260;28;20425;-75
2024/01/27 09:21:28;;;;;;;4.63;2.57;;;2.90;99.90;;;;;;5031936;28;20255;-75
2024/01/27 09:23:54;;;;;;;5.43;2.00;;;2.80;99.90;;;;;;5031285;28;20182;-75
2024/01/27 09:26:20;;;;;;;6.10;2.47;;;2.70;99.90;;;;;;5034502;28;20440;-75
2024/01/27 09:28:53;;;;;;;4.70;2.53;;;2.70;99.90;;;;;;5035698;28;20428;-75
2024/01/27 09:31:22;;;;;;;2.67;2.10;;;2.60;99.90;;;;;;5036201;28;20194;-75
2024/01/27 09:33:53;;;;;;;3.53;1.77;;;2.60;99.90;;;;;;5035389;28;20425;-75
2024/01/27 09:36:19;;;;;;;6.27;2.43;;;2.80;99.90;;;;;;5035058;28;20421;-75
2024/01/27 09:38:45;;;;;;;5.50;2.47;;;2.80;99.90;;;;;;5035077;28;20821;-75
2024/01/27 09:41:13;;;;;;;5.53;2.97;;;2.70;99.90;;;;;;5035056;28;20469;-75
2024/01/27 09:43:44;;;;;;;16.40;3.60;;;3.20;99.90;;;;;;5048804;28;20515;-74
2024/01/27 09:46:13;;;;;;;5.03;2.23;;;2.90;99.90;;;;;;5036249;28;20423;-74
2024/01/27 09:48:39;;;;;;;7.10;2.80;;;2.80;99.90;;;;;;5035113;28;21278;-75
2024/01/27 09:51:07;;;;;;;8.50;3.20;;;2.70;99.90;;;;;;5035249;28;20425;-75
2024/01/27 09:53:32;;;;;;;4.13;2.63;;;2.60;99.90;;;;;;5034726;28;20641;-74
2024/01/27 09:55:58;;;;;;;9.50;3.10;;;2.70;99.90;;;;;;5035326;28;20421;-74
2024/01/27 09:58:27;;;;;;;5.30;2.20;;;2.70;99.90;;;;;;5034925;28;20189;-74
2024/01/27 10:00:57;;;;;;;7.40;3.47;;;2.70;99.90;;;;;;5034714;28;21293;-75
2024/01/27 10:03:25;;;;;;;8.27;3.30;;;2.70;99.90;;;;;;5034100;28;20454;-74
2024/01/27 10:05:53;;;;;;;5.20;2.93;;;2.80;99.90;;;;;;5034595;28;20432;-74
2024/01/27 10:08:21;;;;;;;4.40;2.30;;;2.90;99.90;;;;;;5034887;28;20421;-74
2024/01/27 10:10:47;;;;;;;9.10;2.70;;;3.00;99.90;;;;;;5035090;28;20433;-74
2024/01/27 10:13:16;;;;;;;5.50;2.83;;;2.90;99.90;;;;;;5033767;28;20815;-73
2024/01/27 10:15:42;;;;;;;7.00;3.10;;;3.00;99.90;;;;;;5034677;28;20193;-73
2024/01/27 10:18:12;;;;;;;3.70;1.87;;;3.00;99.90;;;;;;5034039;28;20460;-74
2024/01/27 10:20:39;;;;;;;9.23;2.63;;;3.10;99.90;;;;;;5034555;28;20203;-74
2024/01/27 10:23:11;;;;;;;5.53;2.80;;;3.20;99.90;;;;;;5033580;28;20429;-74
2024/01/27 10:25:38;;;;;;;3.20;2.03;;;3.40;99.90;;;;;;5034561;28;20421;-74
2024/01/27 10:28:06;;;;;;;4.90;2.10;;;3.40;99.90;;;;;;5033957;28;20427;-73
2024/01/27 10:30:32;;;;;;;4.20;1.87;;;3.50;99.90;;;;;;5034007;28;20460;-73
2024/01/27 10:32:57;;;;;;;8.53;3.23;;;3.80;99.90;;;;;;5033935;28;20420;-74
2024/01/27 10:35:23;;;;;;;19.17;3.03;;;3.80;99.90;;;;;;5034172;28;20650;-75
2024/01/27 10:37:53;;;;;;;11.50;2.40;;;4.10;99.90;;;;;;5034517;28;20817;-75
2024/01/27 10:40:18;;;;;;;2.93;1.63;;;4.20;99.90;;;;;;5034364;28;20214;-74
2024/01/27 10:42:45;;;;;;;3.60;2.07;;;4.30;99.90;;;;;;5034420;28;20459;-74
2024/01/27 10:45:11;;;;;;;2.30;1.57;;;4.50;99.90;;;;;;5040956;28;20174;-74
2024/01/27 10:47:39;;;;;;;9.63;2.20;;;4.60;99.90;;;;;;5034257;28;20437;-74
2024/01/27 10:50:09;;;;;;;3.40;2.10;;;5.90;99.90;;;;;;5033798;28;20436;-74
2024/01/27 10:52:38;;;;;;;5.73;2.47;;;4.70;99.90;;;;;;5033591;28;20429;-74
2024/01/27 10:55:07;;;;;;;5.60;1.67;;;4.90;99.90;;;;;;5034375;28;20449;-74
2024/01/27 10:57:37;;;;;;;4.90;2.57;;;4.80;99.90;;;;;;5034500;28;20409;-74
2024/01/27 11:00:06;;;;;;;3.27;1.90;;;4.80;99.90;;;;;;5034598;28;20754;-74
2024/01/27 11:02:34;;;;;;;5.43;2.13;;;5.10;99.90;;;;;;5033920;28;20752;-74
2024/01/27 11:05:04;;;;;;;9.53;1.80;;;5.20;99.90;;;;;;5034222;28;20908;-74
2024/01/27 11:07:33;;;;;;;2.57;1.67;;;5.20;99.90;;;;;;5021171;28;20769;-75
2024/01/27 11:09:59;;;;;;;4.87;1.80;;;5.20;99.90;;;;;;5033726;28;20433;-74
2024/01/27 11:12:26;;;;;;;3.77;1.53;;;5.30;99.90;;;;;;5033900;28;20430;-74
2024/01/27 11:14:52;;;;;;;3.77;2.07;;;5.60;99.90;;;;;;5033689;28;20174;-74
2024/01/27 11:17:19;;;;;;;4.80;1.50;;;6.40;99.90;;;;;;5033667;28;20409;-74
2024/01/27 11:19:45;;;;;;;2.23;1.43;;;5.90;99.90;;;;;;5033138;28;20432;-74
2024/01/27 11:22:28;;;;;;;3.10;1.90;;;6.10;99.90;;;;;;5032478;28;20614;-74
2024/01/27 11:25:07;;;;;;;3.57;1.40;;;5.90;99.90;;;;;;5029837;28;20417;-74
2024/01/27 11:27:32;;;;;;;6.80;1.70;;;6.20;99.90;;;;;;5033530;28;20898;-73
2024/01/27 11:29:58;;;;;;;4.70;1.97;;;6.60;99.90;;;;;;5032926;28;20449;-73
2024/01/27 11:32:25;;;;;;;6.80;1.80;;;6.30;99.90;;;;;;5033470;28;20252;-73
2024/01/27 11:34:51;;;;;;;3.33;1.93;;;6.40;99.90;;;;;;5033522;28;20189;-74
2024/01/27 11:37:19;;;;;;;3.00;1.00;;;6.40;99.90;;;;;;5033920;28;20905;-73
2024/01/27 11:39:45;;;;;;;7.43;1.50;;;6.10;99.90;;;;;;5033834;28;20405;-73
2024/01/27 11:42:13;;;;;;;13.07;2.23;;;6.20;99.90;;;;;;5033982;28;20457;-73
2024/01/27 11:44:39;;;;;;;4.87;1.43;;;6.90;99.90;;;;;;5033526;28;20188;-73
2024/01/27 11:47:05;;;;;;;4.30;1.20;;;6.50;99.90;;;;;;5033234;28;20417;-73
2024/01/27 11:49:32;;;;;;;4.43;1.57;;;6.40;99.90;;;;;;5032078;28;20429;-73
2024/01/27 11:51:58;;;;;;;1.87;0.77;;;6.40;99.90;;;;;;5032219;28;20433;-74
2024/01/27 11:54:23;;;;;;;4.03;1.83;;;6.50;99.90;;;;;;5030793;28;20437;-73
2024/01/27 11:56:49;;;;;;;4.03;1.57;;;6.50;99.90;;;;;;5025503;28;20530;-74
2024/01/27 11:59:15;;;;;;;13.43;2.00;;;6.60;99.90;;;;;;5032709;28;20691;-73
2024/01/27 12:01:40;;;;;;;8.33;1.23;;;6.90;99.90;;;;;;5032748;28;20210;-73
2024/01/27 12:04:07;;;;;;;13.93;1.70;;;7.10;99.70;;;;;;5031700;28;20187;-74
2024/01/27 12:06:32;;;;;;;5.47;1.97;;;7.10;99.80;;;;;;5032391;28;20182;-73
2024/01/27 12:08:58;;;;;;;4.23;2.10;;;7.10;99.70;;;;;;5032229;28;20500;-74
2024/01/27 12:11:25;;;;;;;1.80;1.30;;;7.10;99.90;;;;;;5032044;28;20581;-73
2024/01/27 12:13:51;;;;;;;4.10;1.73;;;7.20;99.90;;;;;;5032660;28;20261;-73
2024/01/27 12:16:17;;;;;;;7.93;1.70;;;7.60;99.70;;;;;;5032706;28;20463;-73
2024/01/27 12:18:44;;;;;;;2.07;0.97;;;7.20;99.80;;;;;;5032134;28;20515;-73
2024/01/27 12:21:09;;;;;;;6.30;1.37;;;7.20;99.40;;;;;;5032098;28;20588;-74
2024/01/27 12:23:35;;;;;;;4.47;1.57;;;7.20;99.60;;;;;;5032353;28;20508;-73
2024/01/27 12:26:00;;;;;;;7.23;1.37;;;7.00;99.90;;;;;;5032744;28;20294;-73
2024/01/27 12:28:27;;;;;;;3.30;1.27;;;7.10;99.90;;;;;;5032209;28;20185;-73
2024/01/27 12:30:53;;;;;;;2.43;1.23;;;6.80;99.90;;;;;;5031731;28;20233;-73
2024/01/27 12:33:22;;;;;;;1.97;1.20;;;6.90;99.90;;;;;;5031887;28;21048;-73
2024/01/27 12:35:49;;;;;;;3.50;1.17;;;6.90;99.90;;;;;;5032222;28;21095;-73
2024/01/27 12:38:14;;;;;;;4.60;1.90;;;7.00;99.90;;;;;;5032321;28;20730;-73
2024/01/27 12:40:40;;;;;;;7.27;1.47;;;6.90;99.90;;;;;;5032173;28;20461;-73
2024/01/27 12:43:06;;;;;;;5.30;1.67;;;7.00;99.90;;;;;;5032097;28;20186;-73
2024/01/27 12:45:33;;;;;;;4.20;1.13;;;6.90;99.90;;;;;;5032245;28;20225;-74